N7HRX Weather Reports


Display with metric or nautical units.
time (UTC)temp
F
wind
direction
speed
MPH
gust
MPH
rain 1hr
in
rain 24hr
in
rain mn
in
humidity
%
barometer
mb
20210513083335 43 91 0.0 0.0 0.00 0.00 0.00 65 1019.2
20210513082333 43 91 0.0 0.0 0.00 0.00 0.00 63 1019.2
20210513081348 44 91 0.0 0.0 0.00 0.00 0.00 61 1019.3
20210513080347 45 91 0.0 2.0 0.00 0.00 0.00 59 1019.4
20210513075341 45 91 0.0 3.0 0.00 0.00 0.00 57 1019.5
20210513074335 46 92 1.0 5.0 0.00 0.00 0.00 56 1019.5
20210513073333 47 46 3.0 4.0 0.00 0.00 0.00 53 1019.6
20210513072347 51 78 3.0 5.0 0.00 0.00 0.00 44 1019.6
20210513071336 54 109 3.0 6.0 0.00 0.00 0.00 35 1019.6
20210513070357 55 160 4.0 11.0 0.00 0.00 0.00 33 1019.6
20210513065332 55 119 5.0 13.0 0.00 0.00 0.00 33 1019.6
20210513064329 54 130 5.0 9.0 0.00 0.00 0.00 36 1019.7
20210513063342 50 172 5.0 7.0 0.00 0.00 0.00 46 1019.7
20210513062336 46 175 4.0 8.0 0.00 0.00 0.00 63 1019.7
20210513061346 46 65 1.0 4.0 0.00 0.00 0.00 61 1019.4
20210513060348 46 65 3.0 4.0 0.00 0.00 0.00 59 1019.5
20210513055328 47 65 3.0 7.0 0.00 0.00 0.00 57 1019.3
20210513054344 47 65 3.0 4.0 0.00 0.00 0.00 57 1019.4
20210513053334 48 65 3.0 5.0 0.00 0.00 0.00 57 1019.5
20210513052347 47 65 3.0 4.0 0.00 0.00 0.00 60 1019.3
20210513051338 48 65 3.0 4.0 0.00 0.00 0.00 59 1019.4
20210513050345 48 65 0.0 4.0 0.00 0.00 0.00 59 1019.4
20210513045341 49 65 3.0 4.0 0.00 0.00 0.00 56 1019.4
20210513044336 50 65 0.0 2.0 0.00 0.00 0.00 56 1019.5
20210513043350 50 65 2.0 3.0 0.00 0.00 0.00 54 1019.4
20210513042341 51 65 2.0 4.0 0.00 0.00 0.00 52 1019.4
20210513041330 52 65 3.0 4.0 0.00 0.00 0.00 47 1019.4
20210513040400 51 65 3.0 4.0 0.00 0.00 0.00 51 1019.3
20210513035334 53 65 0.0 0.0 0.00 0.00 0.00 48 1019.1
20210513034344 54 65 0.0 0.0 0.00 0.00 0.00 46 1019.2
20210513033335 54 65 0.0 2.0 0.00 0.00 0.00 45 1019.1
20210513032331 54 65 1.0 4.0 0.00 0.00 0.00 44 1019.0
20210513031344 55 65 1.0 4.0 0.00 0.00 0.00 44 1018.9
20210513030406 57 65 3.0 5.0 0.00 0.00 0.00 41 1018.8
20210513025338 61 12 4.0 7.0 0.00 0.00 0.00 35 1018.7
20210513024332 61 13 3.0 7.0 0.00 0.00 0.00 31 1018.6
20210513023343 62 355 4.0 7.0 0.00 0.00 0.00 31 1018.5
20210513022338 63 345 4.0 7.0 0.00 0.00 0.00 29 1018.4
20210513021348 64 321 3.0 8.0 0.00 0.00 0.00 30 1018.4
20210513020349 65 336 4.0 7.0 0.00 0.00 0.00 29 1018.4
20210513015343 65 314 4.0 6.0 0.00 0.00 0.00 27 1018.4
20210513014333 66 333 4.0 6.0 0.00 0.00 0.00 27 1018.4
20210513013344 67 318 3.0 6.0 0.00 0.00 0.00 25 1018.2
20210513012340 68 342 2.0 6.0 0.00 0.00 0.00 24 1018.4
20210513011330 68 5 4.0 9.0 0.00 0.00 0.00 26 1018.4
20210513010351 69 5 3.0 7.0 0.00 0.00 0.00 22 1018.5
20210513005348 69 223 2.0 7.0 0.00 0.00 0.00 21 1018.5
20210513004337 69 191 3.0 7.0 0.00 0.00 0.00 21 1018.5
20210513003331 70 191 0.0 4.0 0.00 0.00 0.00 20 1018.5
20210513002342 70 190 1.0 6.0 0.00 0.00 0.00 23 1018.5
20210513001334 71 261 2.0 7.0 0.00 0.00 0.00 20 1018.7
20210513000355 71 214 1.0 7.0 0.00 0.00 0.00 19 1018.6
20210512235333 71 239 2.0 7.0 0.00 0.00 0.00 19 1018.7
20210512234347 71 264 5.0 8.0 0.00 0.00 0.00 23 1018.7
20210512233338 70 183 3.0 6.0 0.00 0.00 0.00 21 1018.7
20210512232349 70 80 3.0 6.0 0.00 0.00 0.00 21 1018.9
20210512231339 70 205 1.0 5.0 0.00 0.00 0.00 23 1018.9
20210512230400 70 183 0.0 6.0 0.00 0.00 0.00 20 1019.0
20210512225339 71 190 5.0 7.0 0.00 0.00 0.00 21 1019.0
20210512224348 70 197 2.0 9.0 0.00 0.00 0.00 22 1019.1
20210512223337 70 94 5.0 9.0 0.00 0.00 0.00 22 1019.3
20210512222328 70 120 5.0 13.0 0.00 0.00 0.00 21 1019.4
20210512221344 70 198 4.0 7.0 0.00 0.00 0.00 21 1019.5
20210512220350 70 64 4.0 9.0 0.00 0.00 0.00 25 1019.7
20210512215347 70 75 7.0 10.0 0.00 0.00 0.00 21 1019.9
20210512214335 69 83 2.0 9.0 0.00 0.00 0.00 20 1020.1
20210512213346 71 178 4.0 10.0 0.00 0.00 0.00 19 1020.5
20210512212337 70 143 3.0 8.0 0.00 0.00 0.00 21 1020.4
20210512211349 70 182 2.0 5.0 0.00 0.00 0.00 20 1020.7
20210512210349 70 285 1.0 4.0 0.00 0.00 0.00 20 1020.8
20210512205330 71 212 4.0 7.0 0.00 0.00 0.00 19 1021.0
20210512204341 71 139 4.0 7.0 0.00 0.00 0.00 22 1021.0
20210512203330 70 200 5.0 8.0 0.00 0.00 0.00 21 1021.0
20210512202341 69 78 1.0 6.0 0.00 0.00 0.00 22 1021.2
20210512201332 70 122 4.0 8.0 0.00 0.00 0.00 24 1021.5
20210512200357 70 109 1.0 8.0 0.00 0.00 0.00 21 1021.4
20210512195331 71 205 4.0 9.0 0.00 0.00 0.00 19 1021.5
20210512194342 70 254 3.0 10.0 0.00 0.00 0.00 21 1021.5
20210512193333 70 198 4.0 7.0 0.00 0.00 0.00 21 1021.6
20210512192342 69 221 4.0 7.0 0.00 0.00 0.00 25 1021.6
20210512191336 70 215 5.0 7.0 0.00 0.00 0.00 22 1021.6
20210512190401 70 171 3.0 8.0 0.00 0.00 0.00 24 1021.7
20210512185335 69 183 6.0 8.0 0.00 0.00 0.00 24 1021.9
20210512184346 68 132 5.0 8.0 0.00 0.00 0.00 27 1021.9
20210512183337 68 162 1.0 7.0 0.00 0.00 0.00 27 1021.9
20210512182336 68 225 3.0 7.0 0.00 0.00 0.00 27 1021.9
20210512181348 66 146 3.0 7.0 0.00 0.00 0.00 30 1022.0
20210512180348 65 167 1.0 7.0 0.00 0.00 0.00 30 1022.2
20210512175343 65 173 2.0 7.0 0.00 0.00 0.00 31 1022.2
20210512174336 64 236 2.0 7.0 0.00 0.00 0.00 34 1022.4
20210512173344 64 206 4.0 7.0 0.00 0.00 0.00 36 1022.4
20210512172334 62 122 2.0 7.0 0.00 0.00 0.00 37 1022.4
20210512171348 63 175 4.0 7.0 0.00 0.00 0.00 36 1022.4
20210512170350 62 202 1.0 5.0 0.00 0.00 0.00 39 1022.2
20210512165345 60 123 0.0 6.0 0.00 0.00 0.00 42 1022.3
20210512164334 61 185 2.0 5.0 0.00 0.00 0.00 39 1022.4
20210512163331 60 180 1.0 6.0 0.00 0.00 0.00 41 1022.5
20210512162343 60 192 4.0 6.0 0.00 0.00 0.00 41 1022.6
20210512161334 59 198 5.0 7.0 0.00 0.00 0.00 43 1022.6
20210512160354 59 205 5.0 7.0 0.00 0.00 0.00 44 1022.5
20210512155348 59 200 2.0 6.0 0.00 0.00 0.00 42 1022.5
20210512154342 57 178 3.0 4.0 0.00 0.00 0.00 43 1022.5
20210512153333 57 178 2.0 4.0 0.00 0.00 0.00 44 1022.5
20210512152345 56 178 2.0 4.0 0.00 0.00 0.00 42 1022.7
20210512151338 55 178 1.0 4.0 0.00 0.00 0.00 43 1022.6
20210512150344 55 175 2.0 5.0 0.00 0.00 0.00 46 1022.7
20210512145340 53 175 1.0 4.0 0.00 0.00 0.00 47 1022.7
20210512144338 53 167 1.0 5.0 0.00 0.00 0.00 48 1022.7
20210512143333 51 67 1.0 4.0 0.00 0.00 0.00 51 1022.5
20210512142328 48 0.0 0.0 0.00 0.00 0.00 53 1022.6
20210512141342 45 0.0 0.0 0.00 0.00 0.00 62 1022.7
20210512140346 43 0.0 0.0 0.00 0.00 0.00 66 1022.6
20210512135344 41 0.0 0.0 0.00 0.00 0.00 71 1022.5
20210512134335 39 0.0 0.0 0.00 0.00 0.00 73 1022.5
20210512133325 37 43 2.0 6.0 0.00 0.00 0.00 74 1022.5
20210512132336 36 43 2.0 6.0 0.00 0.00 0.00 76 1022.4
20210512131348 35 56 0.0 0.0 0.00 0.00 0.00 77 1022.4
20210512130350 35 56 0.0 0.0 0.00 0.00 0.00 77 1022.4
20210512125331 34 55 0.0 3.0 0.00 0.00 0.00 79 1022.4
20210512124340 34 56 0.0 3.0 0.00 0.00 0.00 80 1022.2
20210512123333 34 56 2.0 3.0 0.00 0.00 0.00 79 1022.0
20210512122328 34 56 2.0 3.0 0.00 0.00 0.00 78 1022.2
20210512121339 34 56 0.0 0.0 0.00 0.00 0.00 79 1022.0
20210512120349 34 56 0.0 0.0 0.00 0.00 0.00 76 1021.9
20210512115325 35 56 0.0 4.0 0.00 0.00 0.00 77 1021.7
20210512114339 34 56 0.0 1.0 0.00 0.00 0.00 78 1021.7
20210512113333 34 56 3.0 5.0 0.00 0.00 0.00 79 1021.7
20210512112344 33 95 0.0 0.0 0.00 0.00 0.00 79 1021.6
20210512111341 34 95 0.0 0.0 0.00 0.00 0.00 77 1021.6
20210512110346 35 95 2.0 5.0 0.00 0.00 0.00 74 1021.4
20210512105344 36 95 1.0 5.0 0.00 0.00 0.00 73 1021.3
20210512104338 36 96 4.0 5.0 0.00 0.00 0.00 71 1021.2
20210512103348 37 97 0.0 6.0 0.00 0.00 0.00 70 1021.0
20210512102342 35 92 0.0 6.0 0.00 0.00 0.00 77 1021.0
20210512101334 34 25 0.0 0.0 0.00 0.00 0.00 78 1021.0
20210512100355 34 25 0.0 0.0 0.00 0.00 0.00 79 1021.0
20210512095329 35 25 0.0 0.0 0.00 0.00 0.00 77 1020.8
20210512094339 36 25 0.0 0.0 0.00 0.00 0.00 75 1020.6
20210512093330 36 25 1.0 4.0 0.00 0.00 0.00 74 1020.7
20210512092345 36 25 2.0 4.0 0.00 0.00 0.00 74 1020.5
20210512091338 36 25 2.0 4.0 0.00 0.00 0.00 72 1020.7
20210512090401 36 25 1.0 4.0 0.00 0.00 0.00 74 1020.7
20210512085336 37 81 0.0 2.0 0.00 0.00 0.00 71 1020.6
20210512084330 38 51 0.0 0.0 0.00 0.00 0.00 69 1020.7